Time;durP1;ratioP1;P1;durP2;ratioP2;P2;SDS_P1;SDS_P2;PMS_P1;PMS_P2;Temp;Humidity;BMP_temperature;BMP_pressure;BME280_temperature;BME280_humidity;BME280_pressure;Samples;Min_cycle;Max_cycle;Signal;HPM_P1;HPM_P2
2022/06/27 00:01:30;;;;;;;7.82;4.82;;;24.20;1.00;;;;;;6245263;23;20165;-93
2022/06/27 00:03:57;;;;;;;5.72;4.53;;;24.10;1.00;;;;;;6245435;23;20489;-90
2022/06/27 00:06:26;;;;;;;4.80;4.10;;;24.10;1.00;;;;;;6245464;23;20165;-89
2022/06/27 00:08:53;;;;;;;6.55;4.85;;;24.10;1.00;;;;;;6245543;23;20200;-88
2022/06/27 00:11:21;;;;;;;5.30;4.80;;;24.10;1.00;;;;;;6245235;23;20164;-90
2022/06/27 00:13:49;;;;;;;7.57;4.80;;;24.10;1.00;;;;;;6245444;23;20192;-89
2022/06/27 00:16:16;;;;;;;5.38;4.72;;;24.10;1.00;;;;;;6245111;23;20167;-89
2022/06/27 00:18:43;;;;;;;5.25;4.38;;;24.00;1.00;;;;;;6244653;23;20167;-93
2022/06/27 00:21:10;;;;;;;7.10;4.45;;;24.00;1.00;;;;;;6245197;23;20161;-89
2022/06/27 00:23:38;;;;;;;5.63;4.72;;;24.00;1.00;;;;;;6245117;23;20164;-89
2022/06/27 00:26:06;;;;;;;7.40;4.68;;;23.90;1.00;;;;;;6245275;23;20180;-90
2022/06/27 00:28:33;;;;;;;7.30;4.70;;;23.80;1.00;;;;;;6245279;23;20171;-91
2022/06/27 00:31:00;;;;;;;5.40;4.82;;;23.80;2.80;;;;;;6245233;23;20168;-92
2022/06/27 00:33:27;;;;;;;7.65;4.70;;;23.70;3.00;;;;;;6245155;23;20192;-89
2022/06/27 00:35:54;;;;;;;5.70;4.70;;;23.70;3.60;;;;;;6245351;23;20191;-89
2022/06/27 00:38:21;;;;;;;7.28;4.60;;;23.70;4.70;;;;;;6244881;23;20222;-87
2022/06/27 00:40:49;;;;;;;5.65;5.05;;;23.60;5.20;;;;;;6244865;23;20156;-89
2022/06/27 00:43:16;;;;;;;18.30;5.30;;;23.60;6.00;;;;;;6245519;23;20165;-90
2022/06/27 00:45:44;;;;;;;6.38;4.90;;;23.60;8.50;;;;;;6244899;23;20230;-90
2022/06/27 00:48:11;;;;;;;7.57;5.00;;;23.50;8.90;;;;;;6245198;23;20595;-91
2022/06/27 00:50:38;;;;;;;6.50;4.75;;;23.40;9.60;;;;;;6245038;23;20171;-89
2022/06/27 00:53:05;;;;;;;6.25;4.65;;;23.40;10.50;;;;;;6244704;23;20541;-89
2022/06/27 00:55:32;;;;;;;6.63;5.00;;;23.30;12.20;;;;;;6245099;23;20175;-90
2022/06/27 00:58:02;;;;;;;7.35;5.35;;;23.30;30.20;;;;;;6245381;23;20164;-90
2022/06/27 01:00:29;;;;;;;6.28;4.93;;;23.30;14.40;;;;;;6247170;23;20168;-89
2022/06/27 01:02:56;;;;;;;7.22;5.22;;;23.30;17.10;;;;;;6246871;23;20172;-89
2022/06/27 01:05:23;;;;;;;5.95;4.72;;;23.20;16.90;;;;;;6247242;23;20185;-90
2022/06/27 01:07:51;;;;;;;5.00;4.50;;;23.20;17.80;;;;;;6246954;23;20226;-90
2022/06/27 01:10:18;;;;;;;8.02;4.82;;;23.20;19.50;;;;;;6246888;23;20164;-92
2022/06/27 01:12:45;;;;;;;7.63;4.85;;;23.20;20.30;;;;;;6247218;23;20167;-89
2022/06/27 01:15:14;;;;;;;9.07;5.40;;;23.10;22.40;;;;;;6246775;23;20175;-89
2022/06/27 01:17:41;;;;;;;10.48;5.30;;;23.10;22.10;;;;;;6246923;23;20157;-93
2022/06/27 01:20:10;;;;;;;6.93;4.95;;;23.10;33.70;;;;;;6246590;23;20160;-90
2022/06/27 01:22:38;;;;;;;6.07;4.63;;;23.10;25.70;;;;;;6246939;23;20588;-89
2022/06/27 01:25:07;;;;;;;7.43;4.78;;;23.10;25.70;;;;;;6246905;23;20188;-89
2022/06/27 01:27:34;;;;;;;6.85;5.38;;;23.00;28.80;;;;;;6246534;23;20562;-90
2022/06/27 01:30:02;;;;;;;5.93;4.50;;;23.00;29.20;;;;;;6247073;23;20156;-92
2022/06/27 01:32:29;;;;;;;5.85;4.90;;;22.90;30.10;;;;;;6246543;23;20196;-90
2022/06/27 01:34:56;;;;;;;5.80;5.20;;;23.00;31.80;;;;;;6247125;23;20144;-90
2022/06/27 01:37:23;;;;;;;5.95;4.97;;;22.90;34.00;;;;;;6246849;23;20179;-90
2022/06/27 01:39:54;;;;;;;5.95;5.00;;;22.90;36.40;;;;;;6246400;23;20233;-91
2022/06/27 01:42:22;;;;;;;6.07;4.80;;;22.90;39.30;;;;;;6246746;23;20661;-90
2022/06/27 01:44:49;;;;;;;5.63;4.55;;;22.90;39.00;;;;;;6246377;23;20238;-89
2022/06/27 01:47:16;;;;;;;6.90;5.10;;;22.80;41.90;;;;;;6246790;23;20665;-91
2022/06/27 01:49:44;;;;;;;6.18;4.90;;;22.80;44.90;;;;;;6246804;23;20172;-93
2022/06/27 01:52:15;;;;;;;7.32;4.70;;;22.70;47.80;;;;;;6246866;23;20460;-91
2022/06/27 01:54:42;;;;;;;6.35;4.97;;;22.70;51.10;;;;;;6246511;23;20164;-91
2022/06/27 01:57:11;;;;;;;6.97;5.03;;;22.70;54.00;;;;;;6246555;23;20167;-89
2022/06/27 01:59:38;;;;;;;10.32;5.00;;;22.70;56.10;;;;;;6246604;23;20160;-89
2022/06/27 02:02:06;;;;;;;5.10;4.60;;;22.60;60.10;;;;;;6246349;23;20169;-90
2022/06/27 02:04:34;;;;;;;7.63;4.80;;;22.70;63.40;;;;;;6246373;23;20650;-90
2022/06/27 02:07:02;;;;;;;7.93;4.97;;;22.60;68.30;;;;;;6246647;23;20161;-90
2022/06/27 02:09:29;;;;;;;5.55;5.05;;;22.60;71.40;;;;;;6246668;23;20160;-90
2022/06/27 02:11:56;;;;;;;5.00;4.50;;;22.60;74.10;;;;;;6245721;23;20164;-92
2022/06/27 02:14:25;;;;;;;7.18;5.10;;;22.50;78.10;;;;;;6246676;23;20176;-91
2022/06/27 02:16:53;;;;;;;6.97;5.03;;;22.50;84.90;;;;;;6246119;23;20179;-90
2022/06/27 02:19:21;;;;;;;5.57;4.97;;;22.50;91.50;;;;;;6246396;23;20592;-91
2022/06/27 02:21:49;;;;;;;6.50;4.93;;;22.40;94.80;;;;;;6245954;23;20161;-90
2022/06/27 02:24:17;;;;;;;8.98;5.60;;;22.40;98.30;;;;;;6246431;23;20222;-89
2022/06/27 02:26:49;;;;;;;8.25;5.20;;;22.30;99.90;;;;;;6246472;23;20191;-89
2022/06/27 02:29:16;;;;;;;6.22;5.10;;;22.30;99.90;;;;;;6246157;23;20160;-89
2022/06/27 02:31:49;;;;;;;8.70;5.15;;;22.30;99.90;;;;;;6245526;23;20164;-91
2022/06/27 02:34:16;;;;;;;10.17;5.00;;;22.20;99.90;;;;;;6246498;22;20180;-89
2022/06/27 02:36:46;;;;;;;;;;;22.10;99.90;;;;;;6246601;23;19912;-90
2022/06/27 02:39:13;;;;;;;;;;;22.20;99.90;;;;;;6246768;23;19912;-89
2022/06/27 02:41:41;;;;;;;9.00;5.55;;;22.10;99.90;;;;;;6246352;23;19919;-90
2022/06/27 02:44:10;;;;;;;7.38;5.13;;;22.00;99.90;;;;;;6245841;23;20164;-89
2022/06/27 02:46:38;;;;;;;;;;;21.80;99.90;;;;;;6246842;23;20016;-90
2022/06/27 02:49:10;;;;;;;;;;;21.70;99.90;;;;;;6249779;23;20125;-91
2022/06/27 02:51:42;;;;;;;;;;;21.60;99.90;;;;;;6274697;22;19922;-90
2022/06/27 02:54:19;;;;;;;;;;;21.50;99.90;;;;;;6274470;23;19911;-91
2022/06/27 02:56:57;;;;;;;;;;;21.50;99.90;;;;;;6274140;22;19939;-91
2022/06/27 02:59:30;;;;;;;;;;;21.50;99.90;;;;;;6274406;22;19911;-93
2022/06/27 03:02:06;;;;;;;;;;;21.50;99.90;;;;;;6274244;22;19908;-92
2022/06/27 03:04:44;;;;;;;;;;;21.50;99.90;;;;;;6274450;22;19911;-92
2022/06/27 03:07:17;;;;;;;;;;;21.60;1.00;;;;;;6274349;22;19919;-92
2022/06/27 03:09:55;;;;;;;;;;;21.70;1.00;;;;;;6274180;22;19911;-91
2022/06/27 03:12:31;;;;;;;;;;;21.80;1.00;;;;;;6274453;22;19927;-93
2022/06/27 03:14:58;;;;;;;;;;;21.90;1.00;;;;;;6252780;23;19983;-90
2022/06/27 03:17:25;;;;;;;;;;;22.00;1.00;;;;;;6246490;23;19912;-90
2022/06/27 03:19:53;;;;;;;;;;;22.00;99.90;;;;;;6245651;23;19915;-89
2022/06/27 03:22:20;;;;;;;;;;;22.10;99.90;;;;;;6246052;23;20330;-90
2022/06/27 03:24:47;;;;;;;;;;;22.20;99.90;;;;;;6246342;23;19915;-90
2022/06/27 03:27:14;;;;;;;;;;;22.20;99.90;;;;;;6245726;23;19911;-88
2022/06/27 03:29:41;;;;;;;;;;;22.30;99.90;;;;;;6246387;23;19927;-88
2022/06/27 03:32:08;;;;;;;;;;;22.40;99.90;;;;;;6246473;23;19912;-89
2022/06/27 03:34:35;;;;;;;;;;;22.40;1.00;;;;;;6246069;23;20370;-90
2022/06/27 03:37:04;;;;;;;;;;;22.40;1.00;;;;;;6246180;23;19912;-89
2022/06/27 03:39:32;;;;;;;;;;;22.40;1.00;;;;;;6246186;23;19915;-91
2022/06/27 03:41:59;;;;;;;7.72;5.28;;;22.40;1.00;;;;;;6245241;23;20189;-89
2022/06/27 03:44:28;;;;;;;9.68;4.90;;;22.40;1.00;;;;;;6245433;23;20596;-89
2022/06/27 03:46:55;;;;;;;;;;;22.60;1.00;;;;;;6245802;23;20180;-90
2022/06/27 03:52:08;;;;;;;6.30;4.93;;;23.90;1.00;;;;;;6245744;23;20195;-90
2022/06/27 03:54:35;;;;;;;;;;;24.80;99.90;;;;;;6248648;23;20171;-88
2022/06/27 03:57:02;;;;;;;8.32;5.00;;;25.60;99.90;;;;;;6245189;23;20046;-90
2022/06/27 03:59:29;;;;;;;7.45;5.03;;;26.40;99.90;;;;;;6246457;23;20145;-90
2022/06/27 04:02:32;;;;;;;7.85;4.70;;;27.10;99.90;;;;;;6249152;23;20219;-91
2022/06/27 04:05:26;;;;;;;4.57;4.10;;;27.90;99.90;;;;;;6254233;23;20164;-92
2022/06/27 04:08:24;;;;;;;5.70;4.80;;;28.60;99.90;;;;;;6101238;23;20170;-93
2022/06/27 04:11:06;;;;;;;8.57;4.60;;;29.20;99.90;;;;;;6101362;23;20246;-90
2022/06/27 04:20:11;;;;;;;;;;;;;;;;;;;;;
2022/06/27 04:26:26;;;;;;;6.40;4.00;;;32.20;92.20;;;;;;6229881;23;20184;-90
2022/06/27 04:29:24;;;;;;;5.15;4.03;;;32.70;75.60;;;;;;6234529;23;20153;-90
2022/06/27 04:32:32;;;;;;;6.10;4.00;;;33.20;58.80;;;;;;6251864;23;20160;-93
2022/06/27 04:37:48;;;;;;;12.55;4.30;;;34.30;46.80;;;;;;6201578;22;20192;-90
2022/06/27 04:40:17;;;;;;;7.35;4.15;;;34.70;31.50;;;;;;6245278;23;20598;-93
2022/06/27 04:42:50;;;;;;;6.18;3.83;;;35.20;30.00;;;;;;6244882;23;20160;-93
2022/06/27 04:45:18;;;;;;;10.27;4.15;;;35.50;25.60;;;;;;6244939;23;20159;-93
2022/06/27 04:47:47;;;;;;;8.70;4.25;;;35.90;21.80;;;;;;6245298;23;20517;-91
2022/06/27 04:50:17;;;;;;;7.65;4.00;;;36.30;17.80;;;;;;6245130;23;20167;-92
2022/06/27 04:52:45;;;;;;;8.88;3.70;;;36.60;13.00;;;;;;6245738;23;20144;-94
2022/06/27 04:55:12;;;;;;;6.30;3.58;;;36.90;10.30;;;;;;6245955;23;20163;-92
2022/06/27 04:57:43;;;;;;;8.50;4.03;;;37.20;6.80;;;;;;6245682;23;20155;-91
2022/06/27 05:00:13;;;;;;;12.50;4.05;;;37.40;4.60;;;;;;6245111;23;20226;-91
2022/06/27 05:02:45;;;;;;;;;;;37.60;1.90;;;;;;6256214;22;20562;-90
2022/06/27 05:05:14;;;;;;;5.18;3.67;;;38.10;1.00;;;;;;6271570;22;20368;-91
2022/06/27 05:07:51;;;;;;;5.20;3.85;;;38.60;1.00;;;;;;6266532;23;20162;-93
2022/06/27 05:10:24;;;;;;;5.35;3.83;;;39.20;1.00;;;;;;6269770;23;20174;-94
2022/06/27 05:20:12;;;;;;;7.05;4.20;;;40.00;1.00;;;;;;6176053;23;20214;-94
2022/06/27 05:22:47;;;;;;;6.60;3.95;;;40.00;1.00;;;;;;6244674;23;20185;-90
2022/06/27 05:25:41;;;;;;;6.75;3.90;;;40.30;1.00;;;;;;6242996;23;20692;-89
2022/06/27 05:28:22;;;;;;;9.35;4.07;;;40.70;1.00;;;;;;6262384;23;20663;-89
2022/06/27 05:31:14;;;;;;;12.45;4.45;;;40.90;1.00;;;;;;6255598;23;20140;-95
2022/06/27 05:33:50;;;;;;;6.93;4.22;;;41.10;1.00;;;;;;6272097;23;20160;-93
2022/06/27 05:39:23;;;;;;;12.48;3.80;;;40.90;1.00;;;;;;6250290;22;20186;-91
2022/06/27 05:42:48;;;;;;;;;;;;;;;;;;;;;
2022/06/27 05:45:42;;;;;;;5.25;3.60;;;41.50;1.00;;;;;;6259350;23;20144;-90
2022/06/27 05:54:41;;;;;;;4.28;3.78;;;42.00;1.00;;;;;;6251139;23;20586;-89
2022/06/27 05:57:08;;;;;;;5.38;3.90;;;41.70;1.00;;;;;;6268422;22;20179;-88
2022/06/27 05:59:36;;;;;;;4.22;3.83;;;41.60;1.00;;;;;;6233686;23;20164;-88
2022/06/27 06:02:37;;;;;;;3.78;3.47;;;41.40;1.00;;;;;;6246662;23;20168;-91
2022/06/27 06:05:29;;;;;;;8.82;3.55;;;41.40;1.00;;;;;;6294925;22;20162;-91
2022/06/27 06:08:02;;;;;;;5.30;3.85;;;41.30;1.00;;;;;;6226613;22;20179;-89
2022/06/27 06:11:17;;;;;;;4.55;3.60;;;41.10;1.00;;;;;;6291219;22;20171;-94
2022/06/27 06:26:38;;;;;;;4.25;3.78;;;42.10;1.00;;;;;;6246133;22;20222;-96
2022/06/27 06:29:12;;;;;;;5.55;3.63;;;42.40;1.00;;;;;;6247885;23;20251;-90
2022/06/27 06:35:10;;;;;;;5.90;3.47;;;42.80;1.00;;;;;;6252392;23;20170;-90
2022/06/27 06:37:39;;;;;;;4.95;3.50;;;42.90;1.00;;;;;;6245933;23;20239;-90
2022/06/27 06:40:16;;;;;;;5.95;3.53;;;43.30;1.00;;;;;;6272468;23;20160;-94
2022/06/27 06:49:05;;;;;;;3.92;3.38;;;44.00;1.00;;;;;;6226614;23;20160;-90
2022/06/27 06:51:35;;;;;;;5.82;3.85;;;44.40;1.00;;;;;;6245486;23;20155;-89
2022/06/27 06:54:03;;;;;;;4.60;3.47;;;44.60;1.00;;;;;;6245618;23;20164;-89
2022/06/27 06:56:30;;;;;;;5.25;3.47;;;44.60;1.00;;;;;;6244841;23;20191;-89
2022/06/27 06:58:59;;;;;;;4.45;3.75;;;44.30;1.00;;;;;;6245039;23;20211;-88
2022/06/27 07:01:27;;;;;;;;;;;44.00;1.00;;;;;;6245995;23;20065;-88
2022/06/27 07:03:55;;;;;;;4.93;3.83;;;43.80;1.00;;;;;;6245297;23;20173;-89
2022/06/27 07:06:24;;;;;;;5.75;3.60;;;43.70;1.00;;;;;;6245867;23;20213;-88
2022/06/27 07:08:53;;;;;;;4.70;3.47;;;43.80;1.00;;;;;;6245526;23;20163;-87
2022/06/27 07:11:22;;;;;;;4.35;3.90;;;43.90;1.00;;;;;;6245270;23;20599;-87
2022/06/27 07:14:45;;;;;;;5.63;3.70;;;43.80;1.00;;;;;;6253550;23;20164;-93
2022/06/27 07:17:12;;;;;;;3.95;3.55;;;43.90;1.00;;;;;;6244926;23;20271;-88
2022/06/27 07:19:39;;;;;;;3.92;3.42;;;44.10;1.00;;;;;;6245170;23;20178;-89
2022/06/27 07:22:07;;;;;;;4.70;3.70;;;44.30;1.00;;;;;;6244797;23;20160;-88
2022/06/27 07:24:34;;;;;;;4.18;3.70;;;44.40;1.00;;;;;;6245133;23;20190;-87
2022/06/27 07:27:01;;;;;;;5.82;3.58;;;44.30;1.00;;;;;;6245137;23;20183;-88
2022/06/27 07:29:30;;;;;;;5.78;3.78;;;44.40;1.00;;;;;;6244861;23;20163;-88
2022/06/27 07:31:57;;;;;;;5.30;3.78;;;44.60;1.00;;;;;;6245328;23;20595;-88
2022/06/27 07:34:25;;;;;;;3.88;3.58;;;44.90;1.00;;;;;;6244959;23;20164;-88
2022/06/27 07:36:52;;;;;;;4.88;3.30;;;45.10;1.00;;;;;;6244406;23;20630;-87
2022/06/27 07:39:19;;;;;;;4.80;3.50;;;45.10;1.00;;;;;;6245213;23;20160;-88
2022/06/27 07:41:49;;;;;;;4.43;3.60;;;45.10;1.00;;;;;;6245000;23;20166;-89
2022/06/27 07:44:17;;;;;;;4.40;3.35;;;45.40;1.00;;;;;;6244745;23;20598;-90
2022/06/27 07:46:45;;;;;;;5.97;3.70;;;45.50;1.00;;;;;;6244503;23;20607;-88
2022/06/27 07:49:12;;;;;;;6.85;3.50;;;45.40;1.00;;;;;;6245110;23;20163;-89
2022/06/27 07:51:39;;;;;;;5.70;3.70;;;45.10;1.00;;;;;;6244747;23;20170;-87
2022/06/27 07:54:07;;;;;;;4.22;3.63;;;45.00;1.00;;;;;;6244712;23;20159;-89
2022/06/27 07:56:34;;;;;;;4.55;3.90;;;44.80;1.00;;;;;;6245125;23;20179;-87
2022/06/27 07:59:02;;;;;;;4.85;3.58;;;44.60;1.00;;;;;;6244492;23;20215;-87
2022/06/27 08:01:29;;;;;;;3.83;3.50;;;44.60;1.00;;;;;;6244544;23;20490;-89
2022/06/27 08:03:57;;;;;;;3.67;3.38;;;44.50;1.00;;;;;;6245047;23;20164;-89
2022/06/27 08:06:27;;;;;;;5.32;3.70;;;44.70;1.00;;;;;;6244858;23;20511;-88
2022/06/27 08:08:57;;;;;;;4.75;3.72;;;44.90;1.00;;;;;;6244695;23;20156;-88
2022/06/27 08:11:26;;;;;;;6.00;3.83;;;45.10;1.00;;;;;;6245067;23;20182;-88
2022/06/27 08:13:55;;;;;;;4.75;3.40;;;45.00;1.00;;;;;;6244757;23;20163;-88
2022/06/27 08:16:24;;;;;;;5.78;3.55;;;44.90;1.00;;;;;;6244602;23;20171;-89
2022/06/27 08:18:53;;;;;;;5.03;3.50;;;44.70;1.00;;;;;;6245013;23;20184;-88
2022/06/27 08:21:25;;;;;;;6.28;3.50;;;44.70;1.00;;;;;;6244572;23;20159;-88
2022/06/27 08:23:53;;;;;;;4.32;3.75;;;44.90;1.00;;;;;;6245173;23;20163;-87
2022/06/27 08:26:23;;;;;;;5.68;3.78;;;44.70;1.00;;;;;;6244433;23;20187;-89
2022/06/27 08:28:50;;;;;;;5.13;3.80;;;44.60;1.00;;;;;;6244857;23;20159;-88
2022/06/27 08:31:18;;;;;;;4.35;3.60;;;44.60;1.00;;;;;;6244690;23;20172;-88
2022/06/27 08:33:47;;;;;;;3.85;3.50;;;44.60;1.00;;;;;;6244942;23;20164;-88
2022/06/27 08:36:15;;;;;;;5.40;3.60;;;44.60;1.00;;;;;;6244595;23;20195;-88
2022/06/27 08:38:48;;;;;;;4.95;3.40;;;44.50;1.00;;;;;;6244159;23;20482;-88
2022/06/27 08:41:16;;;;;;;6.03;3.80;;;44.50;1.00;;;;;;6244330;23;20148;-88
2022/06/27 08:43:46;;;;;;;6.32;3.97;;;44.30;1.00;;;;;;6244810;23;20156;-89
2022/06/27 08:46:15;;;;;;;5.43;3.95;;;44.20;1.00;;;;;;6244106;23;20187;-88
2022/06/27 08:48:43;;;;;;;5.93;3.90;;;44.10;1.00;;;;;;6244280;23;20217;-88
2022/06/27 08:51:10;;;;;;;4.10;3.67;;;44.20;1.00;;;;;;6244237;23;20164;-87
2022/06/27 08:53:38;;;;;;;4.10;3.80;;;44.20;1.00;;;;;;6244599;23;20568;-87
2022/06/27 08:56:09;;;;;;;4.88;3.85;;;44.30;1.00;;;;;;6244565;23;20160;-86
2022/06/27 08:58:36;;;;;;;5.47;3.88;;;44.20;1.00;;;;;;6244517;23;20175;-87
2022/06/27 09:01:05;;;;;;;4.45;3.63;;;44.00;1.00;;;;;;6244181;23;20164;-87
2022/06/27 09:03:34;;;;;;;4.40;4.00;;;43.80;1.00;;;;;;6244625;23;20163;-87
2022/06/27 09:06:02;;;;;;;7.45;3.90;;;43.40;1.00;;;;;;6244514;23;20247;-87
2022/06/27 09:08:32;;;;;;;5.10;3.85;;;43.00;1.00;;;;;;6244410;23;20172;-87
2022/06/27 09:11:00;;;;;;;6.95;3.80;;;43.00;1.00;;;;;;6244646;23;20606;-88
2022/06/27 09:13:30;;;;;;;6.13;4.05;;;42.70;1.00;;;;;;6244155;23;20172;-88
2022/06/27 09:15:59;;;;;;;6.03;3.88;;;42.70;1.00;;;;;;6244567;23;20236;-87
2022/06/27 09:18:28;;;;;;;6.13;3.97;;;42.60;1.00;;;;;;6244525;23;20499;-87
2022/06/27 09:20:57;;;;;;;5.20;4.00;;;42.70;1.00;;;;;;6245801;23;20222;-87
2022/06/27 09:23:47;;;;;;;5.50;4.10;;;42.90;1.00;;;;;;6246168;23;20153;-92
2022/06/27 09:26:45;;;;;;;7.25;4.53;;;42.70;1.00;;;;;;6246385;23;20187;-91
2022/06/27 09:29:17;;;;;;;6.18;4.10;;;42.40;1.00;;;;;;6246100;23;20471;-90
2022/06/27 09:31:50;;;;;;;6.82;4.30;;;42.20;1.00;;;;;;6246338;23;20160;-91
2022/06/27 09:34:21;;;;;;;8.32;4.18;;;42.00;1.00;;;;;;6246083;23;20171;-91
2022/06/27 09:37:11;;;;;;;7.10;4.57;;;41.50;1.00;;;;;;6245979;23;20149;-91
2022/06/27 09:39:53;;;;;;;;;;;;;;;;;;;;;
2022/06/27 09:42:32;;;;;;;8.45;4.57;;;40.60;1.00;;;;;;6245915;23;20239;-90
2022/06/27 09:45:09;;;;;;;9.80;4.95;;;40.20;1.00;;;;;;6246255;23;20164;-92
2022/06/27 09:47:40;;;;;;;5.28;3.95;;;39.90;1.00;;;;;;6245423;23;20472;-91
2022/06/27 09:50:19;;;;;;;6.18;4.22;;;39.50;1.00;;;;;;6246015;23;20162;-92
2022/06/27 09:52:53;;;;;;;6.55;4.80;;;39.10;1.00;;;;;;6246025;23;20156;-93
2022/06/27 09:55:30;;;;;;;4.95;4.40;;;38.90;1.00;;;;;;6246528;23;20163;-91
2022/06/27 09:57:59;;;;;;;6.75;4.65;;;38.50;1.00;;;;;;6245770;22;20246;-91
2022/06/27 10:00:34;;;;;;;7.65;4.40;;;38.20;1.00;;;;;;6245308;23;20163;-90
2022/06/27 10:03:08;;;;;;;5.20;4.20;;;38.00;1.00;;;;;;6246166;23;20151;-90
2022/06/27 10:05:44;;;;;;;6.82;4.68;;;37.80;1.00;;;;;;6245412;23;20163;-89
2022/06/27 10:08:33;;;;;;;4.95;4.22;;;37.60;1.00;;;;;;6246037;23;20160;-90
2022/06/27 10:11:24;;;;;;;6.75;4.60;;;37.60;1.00;;;;;;6246331;23;20196;-91
2022/06/27 10:14:28;;;;;;;8.48;4.63;;;37.60;1.00;;;;;;6223036;23;20160;-91
2022/06/27 10:17:01;;;;;;;6.10;4.50;;;37.50;1.00;;;;;;6245783;23;20653;-93
2022/06/27 10:36:13;;;;;;;8.20;4.28;;;36.80;1.00;;;;;;6239710;22;20223;-90
2022/06/27 10:41:43;;;;;;;7.82;4.00;;;36.50;1.00;;;;;;6240450;23;20160;-87
2022/06/27 10:44:29;;;;;;;6.80;4.38;;;36.50;1.00;;;;;;6257168;23;20169;-92
2022/06/27 10:46:56;;;;;;;5.68;4.03;;;36.40;1.00;;;;;;6244617;23;20538;-88
2022/06/27 10:49:28;;;;;;;7.07;3.92;;;36.30;1.00;;;;;;6245870;23;20218;-88
2022/06/27 10:52:30;;;;;;;5.50;4.10;;;36.20;1.00;;;;;;6245486;23;20485;-90
2022/06/27 10:54:57;;;;;;;5.30;4.00;;;36.10;1.00;;;;;;6152624;23;20158;-88
2022/06/27 10:57:42;;;;;;;5.38;3.85;;;36.00;1.00;;;;;;6152585;23;20193;-88
2022/06/27 11:00:10;;;;;;;4.70;4.00;;;36.10;1.00;;;;;;6206107;23;20168;-88
2022/06/27 11:02:39;;;;;;;5.10;3.78;;;36.00;1.00;;;;;;6245839;23;20161;-89
2022/06/27 11:05:13;;;;;;;4.20;3.80;;;36.00;1.00;;;;;;6268391;22;20174;-91
2022/06/27 11:07:59;;;;;;;7.47;3.92;;;36.00;1.00;;;;;;6272378;23;20167;-90
2022/06/27 11:10:26;;;;;;;7.03;4.50;;;36.00;1.00;;;;;;6244273;23;20157;-87
2022/06/27 11:12:53;;;;;;;6.95;4.32;;;35.90;1.00;;;;;;6244909;23;20236;-86
2022/06/27 11:15:20;;;;;;;10.82;4.50;;;35.90;1.00;;;;;;6244886;23;20219;-87
2022/06/27 11:17:47;;;;;;;7.80;4.40;;;35.90;1.00;;;;;;6244462;23;20188;-87
2022/06/27 11:20:21;;;;;;;11.93;4.30;;;36.10;1.00;;;;;;6244415;23;20161;-87
2022/06/27 11:22:55;;;;;;;8.85;4.05;;;36.20;1.00;;;;;;6243765;23;20175;-86
2022/06/27 11:25:24;;;;;;;7.45;4.38;;;36.20;1.00;;;;;;6243342;23;20152;-87
2022/06/27 11:27:54;;;;;;;4.53;4.13;;;36.20;1.00;;;;;;6244448;23;20164;-87
2022/06/27 11:33:23;;;;;;;5.63;4.00;;;36.20;1.00;;;;;;6244493;23;20562;-88
2022/06/27 11:35:51;;;;;;;6.20;4.10;;;36.20;1.00;;;;;;6244661;22;20188;-89
2022/06/27 11:38:25;;;;;;;7.53;4.10;;;36.30;1.00;;;;;;6243981;23;20190;-88
2022/06/27 11:41:06;;;;;;;10.93;4.38;;;36.40;1.00;;;;;;6263230;23;20167;-91
2022/06/27 11:43:51;;;;;;;10.18;4.30;;;36.20;1.00;;;;;;6254202;23;20622;-90
2022/06/27 11:46:36;;;;;;;12.75;4.72;;;36.20;1.00;;;;;;6244891;23;20149;-90
2022/06/27 11:49:06;;;;;;;6.43;3.90;;;36.20;1.00;;;;;;6254018;23;20530;-86
2022/06/27 11:51:36;;;;;;;11.23;4.05;;;36.20;1.00;;;;;;6244002;23;20218;-86
2022/06/27 11:54:07;;;;;;;7.60;3.88;;;36.10;1.00;;;;;;6244333;23;20175;-86
2022/06/27 11:56:38;;;;;;;8.90;3.90;;;36.10;1.00;;;;;;6244940;23;20149;-86
2022/06/27 11:59:07;;;;;;;6.45;4.40;;;36.10;1.00;;;;;;6244560;23;20172;-86
2022/06/27 12:01:39;;;;;;;8.10;4.10;;;36.00;1.00;;;;;;6244456;23;20160;-86
2022/06/27 12:04:17;;;;;;;5.20;3.78;;;36.00;1.00;;;;;;6245006;23;20239;-86
2022/06/27 12:06:46;;;;;;;4.47;3.53;;;35.90;1.00;;;;;;6244411;23;20175;-86
2022/06/27 12:09:15;;;;;;;8.30;3.80;;;35.90;1.00;;;;;;6244163;23;20168;-86
2022/06/27 12:12:10;;;;;;;6.80;4.20;;;35.90;1.00;;;;;;6252200;23;20149;-95
2022/06/27 12:15:01;;;;;;;6.20;3.97;;;35.80;1.00;;;;;;6271922;23;20224;-93
2022/06/27 12:17:39;;;;;;;5.70;4.07;;;35.70;1.00;;;;;;6249089;23;20171;-88
2022/06/27 12:20:09;;;;;;;6.05;3.60;;;35.80;1.00;;;;;;6244795;23;20398;-87
2022/06/27 12:22:36;;;;;;;4.30;3.80;;;35.70;1.00;;;;;;6243707;23;20165;-88
2022/06/27 12:25:06;;;;;;;5.60;3.72;;;35.60;1.00;;;;;;6243850;23;20160;-87
2022/06/27 12:27:33;;;;;;;5.90;3.85;;;35.60;1.00;;;;;;6243748;23;20610;-88
2022/06/27 12:30:00;;;;;;;7.60;3.70;;;35.60;1.00;;;;;;6244766;23;20686;-87
2022/06/27 12:32:28;;;;;;;5.78;4.03;;;35.50;1.00;;;;;;6244344;23;20169;-87
2022/06/27 12:34:55;;;;;;;4.32;3.60;;;35.40;1.00;;;;;;6242886;23;20184;-86
2022/06/27 12:37:22;;;;;;;7.20;3.88;;;35.30;1.00;;;;;;6244465;23;20207;-87
2022/06/27 12:39:49;;;;;;;5.80;3.67;;;35.30;1.00;;;;;;6244554;23;20164;-87
2022/06/27 12:42:17;;;;;;;5.10;4.13;;;35.30;1.00;;;;;;6249338;23;20167;-89
2022/06/27 12:44:45;;;;;;;6.93;3.92;;;35.30;1.00;;;;;;6243684;23;20164;-88
2022/06/27 12:47:12;;;;;;;4.03;3.35;;;35.30;1.00;;;;;;6244760;23;20165;-88
2022/06/27 12:49:39;;;;;;;5.00;4.00;;;35.30;1.00;;;;;;6245007;23;20164;-86
2022/06/27 12:52:07;;;;;;;5.35;3.80;;;35.30;1.00;;;;;;6244343;23;20164;-86
2022/06/27 12:54:34;;;;;;;8.05;3.60;;;35.30;1.00;;;;;;6244472;23;20172;-88
2022/06/27 12:57:01;;;;;;;6.38;3.67;;;35.20;1.00;;;;;;6245995;23;20668;-89
2022/06/27 12:59:30;;;;;;;4.50;3.60;;;35.10;1.00;;;;;;6245823;23;20184;-88
2022/06/27 13:01:57;;;;;;;4.25;3.70;;;35.10;1.00;;;;;;6246337;23;20164;-88
2022/06/27 13:04:24;;;;;;;5.88;3.95;;;35.00;1.00;;;;;;6246124;23;20164;-89
2022/06/27 13:06:52;;;;;;;4.50;3.45;;;35.00;1.00;;;;;;6245763;23;20167;-88
2022/06/27 13:09:19;;;;;;;4.20;3.20;;;35.10;1.00;;;;;;6255186;23;20461;-90
2022/06/27 13:11:46;;;;;;;10.77;3.83;;;35.20;1.00;;;;;;6245950;23;20179;-89
2022/06/27 13:14:21;;;;;;;6.68;3.97;;;35.30;1.00;;;;;;6259585;23;20210;-91
2022/06/27 13:16:51;;;;;;;4.68;3.58;;;35.30;1.00;;;;;;6264746;23;20168;-89
2022/06/27 13:19:18;;;;;;;8.15;3.72;;;35.30;1.00;;;;;;6246600;23;20209;-89
2022/06/27 13:21:45;;;;;;;11.55;3.67;;;35.30;1.00;;;;;;6246168;23;20164;-86
2022/06/27 13:24:13;;;;;;;4.60;3.33;;;35.40;1.00;;;;;;6246341;23;20164;-87
2022/06/27 13:26:49;;;;;;;9.75;4.00;;;35.40;1.00;;;;;;6246806;23;20454;-90
2022/06/27 13:29:39;;;;;;;5.80;3.80;;;35.30;1.00;;;;;;6246838;23;20242;-92
2022/06/27 13:32:08;;;;;;;4.18;3.58;;;35.20;1.00;;;;;;6250624;23;20161;-88
2022/06/27 13:34:50;;;;;;;5.00;3.47;;;35.10;1.00;;;;;;6245676;22;20199;-89
2022/06/27 13:37:26;;;;;;;7.40;6.43;;;35.10;1.00;;;;;;6250681;23;20175;-90
2022/06/27 13:40:00;;;;;;;5.72;4.20;;;35.00;1.00;;;;;;6263856;23;20184;-93
2022/06/27 13:42:49;;;;;;;8.40;3.90;;;35.00;1.00;;;;;;6254200;23;20216;-91
2022/06/27 13:45:42;;;;;;;6.40;3.92;;;35.00;1.00;;;;;;6253542;23;20165;-91
2022/06/27 13:48:30;;;;;;;11.35;4.20;;;35.00;1.00;;;;;;6253876;23;20183;-93
2022/06/27 13:51:28;;;;;;;5.72;3.47;;;35.10;1.00;;;;;;6273065;23;20164;-92
2022/06/27 13:53:55;;;;;;;4.30;3.90;;;35.10;1.00;;;;;;6253383;23;20645;-88
2022/06/27 13:56:24;;;;;;;4.80;3.50;;;35.20;1.00;;;;;;6272484;23;20152;-93
2022/06/27 13:58:52;;;;;;;5.05;3.45;;;35.20;1.00;;;;;;6245381;23;20185;-90
2022/06/27 14:01:36;;;;;;;9.90;3.70;;;35.20;1.00;;;;;;6246046;23;20171;-91
2022/06/27 14:04:06;;;;;;;5.55;3.70;;;35.20;1.00;;;;;;6246307;23;20613;-93
2022/06/27 14:10:03;;;;;;;14.60;3.83;;;35.10;1.00;;;;;;6255214;23;20474;-91
2022/06/27 14:12:35;;;;;;;7.72;3.83;;;35.10;1.00;;;;;;6272773;23;20164;-92
2022/06/27 14:15:19;;;;;;;5.18;3.95;;;35.20;1.00;;;;;;6272866;23;20160;-90
2022/06/27 14:18:07;;;;;;;;;;;;;;;;;;;;;
2022/06/27 14:20:54;;;;;;;9.50;8.48;;;35.20;1.00;;;;;;6274015;23;20189;-91
2022/06/27 14:23:41;;;;;;;4.10;3.20;;;35.20;1.00;;;;;;6272402;23;20155;-91
2022/06/27 14:26:15;;;;;;;7.53;4.28;;;35.20;1.00;;;;;;6272970;23;20161;-93
2022/06/27 14:28:56;;;;;;;14.65;4.38;;;35.00;1.00;;;;;;6235911;23;20194;-91
2022/06/27 14:31:43;;;;;;;6.07;3.70;;;34.90;1.00;;;;;;6265957;22;20152;-91
2022/06/27 14:34:17;;;;;;;5.55;4.13;;;34.80;1.00;;;;;;6246397;22;20535;-90
2022/06/27 14:37:05;;;;;;;5.85;3.55;;;34.60;1.00;;;;;;6262716;23;20151;-92
2022/06/27 14:39:32;;;;;;;6.55;3.97;;;34.50;1.00;;;;;;6265597;23;20653;-89
2022/06/27 14:42:04;;;;;;;6.05;3.55;;;34.50;1.00;;;;;;6251760;23;20175;-91
2022/06/27 14:44:45;;;;;;;7.97;3.70;;;34.60;1.00;;;;;;6272835;23;20172;-93
2022/06/27 14:47:25;;;;;;;5.72;3.55;;;34.70;1.00;;;;;;6272705;23;20175;-91
2022/06/27 14:49:59;;;;;;;4.45;3.65;;;34.80;1.00;;;;;;6251063;23;20160;-93
2022/06/27 14:52:28;;;;;;;3.83;3.33;;;34.90;1.00;;;;;;6270691;23;20160;-88
2022/06/27 14:55:42;;;;;;;4.60;3.53;;;35.00;1.00;;;;;;6257613;23;20152;-92